sensor_id;sensor_type;location;lat;lon;timestamp;pressure;altitude;pressure_sealevel;temperature;humidity
45255;BME280;30989;52.078;21.014;2024-03-17T00:01:35;165342.00;;;6.07;100.00
45255;BME280;30989;52.078;21.014;2024-03-17T00:04:01;165339.31;;;6.06;100.00
45255;BME280;30989;52.078;21.014;2024-03-17T00:06:26;165327.31;;;6.01;100.00
45255;BME280;30989;52.078;21.014;2024-03-17T00:08:52;165311.28;;;5.95;100.00
45255;BME280;30989;52.078;21.014;2024-03-17T00:11:17;165340.66;;;6.06;100.00
45255;BME280;30989;52.078;21.014;2024-03-17T00:13:42;165329.97;;;6.02;100.00
45255;BME280;30989;52.078;21.014;2024-03-17T00:16:08;165324.63;;;6.00;100.00
45255;BME280;30989;52.078;21.014;2024-03-17T00:18:34;165319.28;;;5.98;100.00
45255;BME280;30989;52.078;21.014;2024-03-17T00:21:02;165327.31;;;6.01;100.00
45255;BME280;30989;52.078;21.014;2024-03-17T00:23:27;165300.59;;;5.91;100.00
45255;BME280;30989;52.078;21.014;2024-03-17T00:25:54;165321.97;;;5.99;100.00
45255;BME280;30989;52.078;21.014;2024-03-17T00:28:20;165317.97;;;5.98;100.00
45255;BME280;30989;52.078;21.014;2024-03-17T00:30:46;165303.28;;;5.92;100.00
45255;BME280;30989;52.078;21.014;2024-03-17T00:33:11;165289.88;;;5.87;100.00
45255;BME280;30989;52.078;21.014;2024-03-17T00:35:37;165289.88;;;5.87;100.00
45255;BME280;30989;52.078;21.014;2024-03-17T00:38:02;165277.84;;;5.82;100.00
45255;BME280;30989;52.078;21.014;2024-03-17T00:40:35;165279.19;;;5.83;100.00
45255;BME280;30989;52.078;21.014;2024-03-17T00:43:00;165248.47;;;5.71;100.00
45255;BME280;30989;52.078;21.014;2024-03-17T00:45:26;165255.16;;;5.74;100.00
45255;BME280;30989;52.078;21.014;2024-03-17T00:47:51;165265.84;;;5.78;100.00
45255;BME280;30989;52.078;21.014;2024-03-17T00:50:16;165263.16;;;5.77;100.00
45255;BME280;30989;52.078;21.014;2024-03-17T00:52:42;165255.16;;;5.74;100.00
45255;BME280;30989;52.078;21.014;2024-03-17T00:55:07;165245.81;;;5.70;100.00
45255;BME280;30989;52.078;21.014;2024-03-17T00:57:35;165239.13;;;5.68;100.00
45255;BME280;30989;52.078;21.014;2024-03-17T01:00:00;165235.13;;;5.66;100.00
45255;BME280;30989;52.078;21.014;2024-03-17T01:02:26;165225.78;;;5.63;100.00
45255;BME280;30989;52.078;21.014;2024-03-17T01:04:51;165217.78;;;5.60;100.00
45255;BME280;30989;52.078;21.014;2024-03-17T01:07:17;165193.75;;;5.50;100.00
45255;BME280;30989;52.078;21.014;2024-03-17T01:09:42;165179.06;;;5.45;100.00
45255;BME280;30989;52.078;21.014;2024-03-17T01:12:08;165192.41;;;5.50;100.00
45255;BME280;30989;52.078;21.014;2024-03-17T01:14:34;165197.75;;;5.52;100.00
45255;BME280;30989;52.078;21.014;2024-03-17T01:17:00;165193.75;;;5.50;100.00
45255;BME280;30989;52.078;21.014;2024-03-17T01:19:26;165183.06;;;5.46;100.00
45255;BME280;30989;52.078;21.014;2024-03-17T01:21:52;165183.06;;;5.46;100.00
45255;BME280;30989;52.078;21.014;2024-03-17T01:24:17;165172.38;;;5.42;100.00
45255;BME280;30989;52.078;21.014;2024-03-17T01:26:43;165169.72;;;5.41;100.00
45255;BME280;30989;52.078;21.014;2024-03-17T01:29:09;165156.38;;;5.36;100.00
45255;BME280;30989;52.078;21.014;2024-03-17T01:31:35;165133.69;;;5.28;100.00
45255;BME280;30989;52.078;21.014;2024-03-17T01:34:00;165140.34;;;5.30;100.00
45255;BME280;30989;52.078;21.014;2024-03-17T01:36:26;165125.66;;;5.25;100.00
45255;BME280;30989;52.078;21.014;2024-03-17T01:38:51;165115.00;;;5.21;100.00
45255;BME280;30989;52.078;21.014;2024-03-17T01:41:17;165115.00;;;5.21;100.00
45255;BME280;30989;52.078;21.014;2024-03-17T01:43:42;165102.94;;;5.16;100.00
45255;BME280;30989;52.078;21.014;2024-03-17T01:46:12;165102.94;;;5.16;100.00
45255;BME280;30989;52.078;21.014;2024-03-17T01:48:39;165089.59;;;5.11;100.00
45255;BME280;30989;52.078;21.014;2024-03-17T01:51:04;165084.25;;;5.09;100.00
45255;BME280;30989;52.078;21.014;2024-03-17T01:53:30;165076.25;;;5.06;100.00
45255;BME280;30989;52.078;21.014;2024-03-17T01:55:57;165065.56;;;5.02;100.00
45255;BME280;30989;52.078;21.014;2024-03-17T01:58:27;165054.88;;;4.98;100.00
45255;BME280;30989;52.078;21.014;2024-03-17T02:00:55;165066.91;;;5.02;100.00
45255;BME280;30989;52.078;21.014;2024-03-17T02:03:21;165053.56;;;4.97;100.00
45255;BME280;30989;52.078;21.014;2024-03-17T02:05:47;165057.56;;;4.99;100.00
45255;BME280;30989;52.078;21.014;2024-03-17T02:08:12;165053.56;;;4.97;100.00
45255;BME280;30989;52.078;21.014;2024-03-17T02:10:38;165032.22;;;4.89;100.00
45255;BME280;30989;52.078;21.014;2024-03-17T02:13:04;165036.22;;;4.91;100.00
45255;BME280;30989;52.078;21.014;2024-03-17T02:15:34;165024.19;;;4.86;100.00
45255;BME280;30989;52.078;21.014;2024-03-17T02:17:59;164998.84;;;4.76;100.00
45255;BME280;30989;52.078;21.014;2024-03-17T02:20:25;165002.84;;;4.78;100.00
45255;BME280;30989;52.078;21.014;2024-03-17T02:23:11;164990.84;;;4.73;100.00
45255;BME280;30989;52.078;21.014;2024-03-17T02:25:37;164985.50;;;4.71;100.00
45255;BME280;30989;52.078;21.014;2024-03-17T02:28:02;164974.84;;;4.67;100.00
45255;BME280;30989;52.078;21.014;2024-03-17T02:30:28;164964.16;;;4.63;100.00
45255;BME280;30989;52.078;21.014;2024-03-17T02:32:54;164954.81;;;4.60;100.00
45255;BME280;30989;52.078;21.014;2024-03-17T02:35:22;164956.16;;;4.60;100.00
45255;BME280;30989;52.078;21.014;2024-03-17T02:37:47;164949.50;;;4.58;100.00
45255;BME280;30989;52.078;21.014;2024-03-17T02:40:13;164944.16;;;4.56;100.00
45255;BME280;30989;52.078;21.014;2024-03-17T02:42:39;164936.16;;;4.52;100.00
45255;BME280;30989;52.078;21.014;2024-03-17T02:45:08;164942.81;;;4.55;100.00
45255;BME280;30989;52.078;21.014;2024-03-17T02:47:34;164940.16;;;4.54;100.00
45255;BME280;30989;52.078;21.014;2024-03-17T02:50:00;164932.16;;;4.51;100.00
45255;BME280;30989;52.078;21.014;2024-03-17T02:52:25;164930.81;;;4.50;100.00
45255;BME280;30989;52.078;21.014;2024-03-17T02:54:51;164922.81;;;4.47;100.00
45255;BME280;30989;52.078;21.014;2024-03-17T02:57:18;164913.47;;;4.44;100.00
45255;BME280;30989;52.078;21.014;2024-03-17T02:59:43;164913.47;;;4.44;100.00
45255;BME280;30989;52.078;21.014;2024-03-17T03:02:10;164902.81;;;4.40;100.00
45255;BME280;30989;52.078;21.014;2024-03-17T03:04:36;164913.47;;;4.44;100.00
45255;BME280;30989;52.078;21.014;2024-03-17T03:07:01;164910.81;;;4.43;100.00
45255;BME280;30989;52.078;21.014;2024-03-17T03:09:27;164908.13;;;4.42;100.00
45255;BME280;30989;52.078;21.014;2024-03-17T03:11:58;164914.81;;;4.44;100.00
45255;BME280;30989;52.078;21.014;2024-03-17T03:14:24;164905.47;;;4.41;100.00
45255;BME280;30989;52.078;21.014;2024-03-17T03:16:50;164917.47;;;4.45;100.00
45255;BME280;30989;52.078;21.014;2024-03-17T03:19:16;164913.47;;;4.44;100.00
45255;BME280;30989;52.078;21.014;2024-03-17T03:21:42;164902.81;;;4.40;100.00
45255;BME280;30989;52.078;21.014;2024-03-17T03:24:07;164884.13;;;4.33;100.00
45255;BME280;30989;52.078;21.014;2024-03-17T03:26:33;164900.13;;;4.39;100.00
45255;BME280;30989;52.078;21.014;2024-03-17T03:28:58;164886.78;;;4.34;100.00
45255;BME280;30989;52.078;21.014;2024-03-17T03:31:24;164896.13;;;4.37;100.00
45255;BME280;30989;52.078;21.014;2024-03-17T03:33:49;164904.13;;;4.40;100.00
45255;BME280;30989;52.078;21.014;2024-03-17T03:36:15;164906.81;;;4.41;100.00
45255;BME280;30989;52.078;21.014;2024-03-17T03:38:42;164901.47;;;4.39;100.00
45255;BME280;30989;52.078;21.014;2024-03-17T03:41:14;164901.47;;;4.39;100.00
45255;BME280;30989;52.078;21.014;2024-03-17T03:43:39;164894.81;;;4.37;100.00
45255;BME280;30989;52.078;21.014;2024-03-17T03:46:06;164905.47;;;4.41;100.00
45255;BME280;30989;52.078;21.014;2024-03-17T03:48:31;164902.81;;;4.40;100.00
45255;BME280;30989;52.078;21.014;2024-03-17T03:50:57;164908.13;;;4.42;100.00
45255;BME280;30989;52.078;21.014;2024-03-17T03:53:24;164902.81;;;4.40;100.00
45255;BME280;30989;52.078;21.014;2024-03-17T03:55:49;164914.81;;;4.44;100.00
45255;BME280;30989;52.078;21.014;2024-03-17T03:58:15;164913.47;;;4.44;100.00
45255;BME280;30989;52.078;21.014;2024-03-17T04:00:41;164893.47;;;4.36;100.00
45255;BME280;30989;52.078;21.014;2024-03-17T04:03:06;164897.47;;;4.38;100.00
45255;BME280;30989;52.078;21.014;2024-03-17T04:05:32;164901.47;;;4.39;100.00
45255;BME280;30989;52.078;21.014;2024-03-17T04:07:58;164889.47;;;4.35;100.00
45255;BME280;30989;52.078;21.014;2024-03-17T04:10:23;164885.47;;;4.33;100.00
45255;BME280;30989;52.078;21.014;2024-03-17T04:12:50;164869.47;;;4.27;100.00
45255;BME280;30989;52.078;21.014;2024-03-17T04:15:16;164866.78;;;4.26;100.00
45255;BME280;30989;52.078;21.014;2024-03-17T04:17:42;164860.13;;;4.24;100.00
45255;BME280;30989;52.078;21.014;2024-03-17T04:20:08;164846.78;;;4.18;100.00
45255;BME280;30989;52.078;21.014;2024-03-17T04:22:35;164845.44;;;4.18;100.00
45255;BME280;30989;52.078;21.014;2024-03-17T04:25:00;164836.13;;;4.14;100.00
45255;BME280;30989;52.078;21.014;2024-03-17T04:27:26;164837.44;;;4.15;100.00
45255;BME280;30989;52.078;21.014;2024-03-17T04:29:53;164822.78;;;4.09;100.00
45255;BME280;30989;52.078;21.014;2024-03-17T04:32:19;164813.44;;;4.06;100.00
45255;BME280;30989;52.078;21.014;2024-03-17T04:34:44;164801.44;;;4.01;100.00
45255;BME280;30989;52.078;21.014;2024-03-17T04:37:13;164794.78;;;3.99;100.00
45255;BME280;30989;52.078;21.014;2024-03-17T04:39:40;164769.44;;;3.89;100.00
45255;BME280;30989;52.078;21.014;2024-03-17T04:42:09;164777.44;;;3.92;100.00
45255;BME280;30989;52.078;21.014;2024-03-17T04:44:34;164765.44;;;3.87;100.00
45255;BME280;30989;52.078;21.014;2024-03-17T04:47:00;164752.09;;;3.82;100.00
45255;BME280;30989;52.078;21.014;2024-03-17T04:49:25;164740.09;;;3.78;100.00
45255;BME280;30989;52.078;21.014;2024-03-17T04:51:51;164724.09;;;3.72;100.00
45255;BME280;30989;52.078;21.014;2024-03-17T04:54:16;164714.78;;;3.68;100.00
45255;BME280;30989;52.078;21.014;2024-03-17T04:56:42;164705.44;;;3.65;100.00
45255;BME280;30989;52.078;21.014;2024-03-17T04:59:07;164702.78;;;3.64;100.00
45255;BME280;30989;52.078;21.014;2024-03-17T05:01:33;164702.78;;;3.64;100.00
45255;BME280;30989;52.078;21.014;2024-03-17T05:04:02;164688.13;;;3.58;100.00
45255;BME280;30989;52.078;21.014;2024-03-17T05:06:28;164676.13;;;3.53;100.00
45255;BME280;30989;52.078;21.014;2024-03-17T05:08:54;164652.13;;;3.44;100.00
45255;BME280;30989;52.078;21.014;2024-03-17T05:11:19;164636.13;;;3.38;100.00
45255;BME280;30989;52.078;21.014;2024-03-17T05:13:45;164629.47;;;3.36;100.00
45255;BME280;30989;52.078;21.014;2024-03-17T05:16:11;164613.47;;;3.30;100.00
45255;BME280;30989;52.078;21.014;2024-03-17T05:18:36;164586.81;;;3.19;100.00
45255;BME280;30989;52.078;21.014;2024-03-17T05:21:06;164577.50;;;3.16;100.00
45255;BME280;30989;52.078;21.014;2024-03-17T05:23:33;164558.81;;;3.09;100.00
45255;BME280;30989;52.078;21.014;2024-03-17T05:25:59;164562.81;;;3.10;100.00
45255;BME280;30989;52.078;21.014;2024-03-17T05:28:27;164556.16;;;3.08;100.00
45255;BME280;30989;52.078;21.014;2024-03-17T05:30:53;164550.84;;;3.06;100.00
45255;BME280;30989;52.078;21.014;2024-03-17T05:33:19;164548.16;;;3.05;100.00
45255;BME280;30989;52.078;21.014;2024-03-17T05:36:00;164552.16;;;3.06;100.00
45255;BME280;30989;52.078;21.014;2024-03-17T05:38:28;164564.16;;;3.11;100.00
45255;BME280;30989;52.078;21.014;2024-03-17T05:40:58;164580.16;;;3.17;100.00
45255;BME280;30989;52.078;21.014;2024-03-17T05:43:28;164597.47;;;3.23;100.00
45255;BME280;30989;52.078;21.014;2024-03-17T05:45:57;164608.13;;;3.28;100.00
45255;BME280;30989;52.078;21.014;2024-03-17T05:48:22;164628.13;;;3.35;100.00
45255;BME280;30989;52.078;21.014;2024-03-17T05:50:50;164660.13;;;3.47;100.00
45255;BME280;30989;52.078;21.014;2024-03-17T05:53:19;164684.13;;;3.56;100.00
45255;BME280;30989;52.078;21.014;2024-03-17T05:55:45;164698.78;;;3.62;100.00
45255;BME280;30989;52.078;21.014;2024-03-17T05:58:11;164681.44;;;3.55;100.00
45255;BME280;30989;52.078;21.014;2024-03-17T06:00:38;164713.44;;;3.68;100.00
45255;BME280;30989;52.078;21.014;2024-03-17T06:03:04;164724.09;;;3.72;100.00
45255;BME280;30989;52.078;21.014;2024-03-17T06:05:37;164742.78;;;3.79;100.00
45255;BME280;30989;52.078;21.014;2024-03-17T06:08:04;164749.44;;;3.81;100.00
45255;BME280;30989;52.078;21.014;2024-03-17T06:10:31;164754.78;;;3.83;100.00
45255;BME280;30989;52.078;21.014;2024-03-17T06:12:57;164768.09;;;3.88;100.00
45255;BME280;30989;52.078;21.014;2024-03-17T06:15:24;164774.78;;;3.91;100.00
45255;BME280;30989;52.078;21.014;2024-03-17T06:17:50;164780.09;;;3.93;100.00
45255;BME280;30989;52.078;21.014;2024-03-17T06:20:20;164780.09;;;3.93;100.00
45255;BME280;30989;52.078;21.014;2024-03-17T06:22:46;164782.78;;;3.94;100.00
45255;BME280;30989;52.078;21.014;2024-03-17T06:25:12;164782.78;;;3.94;100.00
45255;BME280;30989;52.078;21.014;2024-03-17T06:27:38;164789.44;;;3.97;100.00
45255;BME280;30989;52.078;21.014;2024-03-17T06:30:04;164782.78;;;3.94;100.00
45255;BME280;30989;52.078;21.014;2024-03-17T06:32:31;164817.44;;;4.07;100.00
45255;BME280;30989;52.078;21.014;2024-03-17T06:34:57;164846.78;;;4.18;100.00
45255;BME280;30989;52.078;21.014;2024-03-17T06:37:23;164869.47;;;4.27;100.00
45255;BME280;30989;52.078;21.014;2024-03-17T06:39:49;164901.47;;;4.39;100.00
45255;BME280;30989;52.078;21.014;2024-03-17T06:42:14;164921.47;;;4.47;100.00
45255;BME280;30989;52.078;21.014;2024-03-17T06:44:41;164952.16;;;4.59;100.00
45255;BME280;30989;52.078;21.014;2024-03-17T06:47:06;164969.50;;;4.65;100.00
45255;BME280;30989;52.078;21.014;2024-03-17T06:49:31;164977.50;;;4.68;99.06
45255;BME280;30989;52.078;21.014;2024-03-17T06:51:58;165005.53;;;4.79;100.00
45255;BME280;30989;52.078;21.014;2024-03-17T06:54:23;165022.88;;;4.85;100.00
45255;BME280;30989;52.078;21.014;2024-03-17T06:56:49;165052.22;;;4.97;98.72
45255;BME280;30989;52.078;21.014;2024-03-17T06:59:15;165053.56;;;4.97;96.50
45255;BME280;30989;52.078;21.014;2024-03-17T07:01:41;165057.56;;;4.99;96.50
45255;BME280;30989;52.078;21.014;2024-03-17T07:04:06;165050.88;;;4.96;96.35
45255;BME280;30989;52.078;21.014;2024-03-17T07:06:32;165050.88;;;4.96;97.96
45255;BME280;30989;52.078;21.014;2024-03-17T07:08:57;165048.22;;;4.95;97.18
45255;BME280;30989;52.078;21.014;2024-03-17T07:11:23;165069.56;;;5.03;97.78
45255;BME280;30989;52.078;21.014;2024-03-17T07:13:49;165094.91;;;5.13;97.92
45255;BME280;30989;52.078;21.014;2024-03-17T07:16:16;165123.00;;;5.24;96.25
45255;BME280;30989;52.078;21.014;2024-03-17T07:18:43;165115.00;;;5.21;94.77
45255;BME280;30989;52.078;21.014;2024-03-17T07:21:09;165116.31;;;5.21;94.51
45255;BME280;30989;52.078;21.014;2024-03-17T07:23:35;165106.94;;;5.17;93.96
45255;BME280;30989;52.078;21.014;2024-03-17T07:26:02;165119.00;;;5.22;95.71
45255;BME280;30989;52.078;21.014;2024-03-17T07:28:30;165137.69;;;5.29;96.79
45255;BME280;30989;52.078;21.014;2024-03-17T07:30:57;165149.69;;;5.34;95.08
45255;BME280;30989;52.078;21.014;2024-03-17T07:33:23;165161.72;;;5.38;93.06
45255;BME280;30989;52.078;21.014;2024-03-17T07:35:53;165153.69;;;5.35;95.95
45255;BME280;30989;52.078;21.014;2024-03-17T07:38:20;165153.69;;;5.35;93.51
45255;BME280;30989;52.078;21.014;2024-03-17T07:41:04;165159.03;;;5.37;95.04
45255;BME280;30989;52.078;21.014;2024-03-17T07:43:35;165141.69;;;5.31;95.34
45255;BME280;30989;52.078;21.014;2024-03-17T07:48:28;165193.75;;;5.50;98.54
45255;BME280;30989;52.078;21.014;2024-03-17T07:51:05;165211.09;;;5.57;95.60
45255;BME280;30989;52.078;21.014;2024-03-17T07:53:35;165219.09;;;5.60;95.04
45255;BME280;30989;52.078;21.014;2024-03-17T07:56:03;165219.09;;;5.60;94.80
45255;BME280;30989;52.078;21.014;2024-03-17T07:58:30;165193.75;;;5.50;96.54
45255;BME280;30989;52.078;21.014;2024-03-17T08:01:03;165173.72;;;5.43;95.28
45255;BME280;30989;52.078;21.014;2024-03-17T08:03:33;165156.38;;;5.36;96.31
45255;BME280;30989;52.078;21.014;2024-03-17T08:06:00;165171.06;;;5.42;96.30
45255;BME280;30989;52.078;21.014;2024-03-17T08:08:26;165165.72;;;5.40;97.74
45255;BME280;30989;52.078;21.014;2024-03-17T08:10:52;165171.06;;;5.42;99.23
45255;BME280;30989;52.078;21.014;2024-03-17T08:13:17;165173.72;;;5.43;97.60
45255;BME280;30989;52.078;21.014;2024-03-17T08:15:44;165159.03;;;5.37;97.69
45255;BME280;30989;52.078;21.014;2024-03-17T08:18:13;165137.69;;;5.29;99.12
45255;BME280;30989;52.078;21.014;2024-03-17T08:20:39;165160.38;;;5.38;100.00
45255;BME280;30989;52.078;21.014;2024-03-17T08:23:05;165173.72;;;5.43;100.00
45255;BME280;30989;52.078;21.014;2024-03-17T08:25:31;165179.06;;;5.45;98.56
45255;BME280;30989;52.078;21.014;2024-03-17T08:27:57;165188.41;;;5.48;99.93
45255;BME280;30989;52.078;21.014;2024-03-17T08:30:22;165212.44;;;5.58;100.00
45255;BME280;30989;52.078;21.014;2024-03-17T08:32:47;165229.78;;;5.64;98.92
45255;BME280;30989;52.078;21.014;2024-03-17T08:35:13;165231.13;;;5.65;98.11
45255;BME280;30989;52.078;21.014;2024-03-17T08:37:38;165213.75;;;5.58;98.75
45255;BME280;30989;52.078;21.014;2024-03-17T08:40:04;165224.44;;;5.62;99.54
45255;BME280;30989;52.078;21.014;2024-03-17T08:42:32;165249.81;;;5.72;98.58
45255;BME280;30989;52.078;21.014;2024-03-17T08:44:57;165232.44;;;5.65;97.79
45255;BME280;30989;52.078;21.014;2024-03-17T08:47:23;165212.44;;;5.58;99.01
45255;BME280;30989;52.078;21.014;2024-03-17T08:49:51;165205.75;;;5.55;100.00
45255;BME280;30989;52.078;21.014;2024-03-17T08:52:17;165209.75;;;5.57;100.00
45255;BME280;30989;52.078;21.014;2024-03-17T08:54:46;165220.44;;;5.61;99.46
45255;BME280;30989;52.078;21.014;2024-03-17T08:57:12;165200.41;;;5.53;100.00
45255;BME280;30989;52.078;21.014;2024-03-17T08:59:37;165215.09;;;5.59;100.00
45255;BME280;30989;52.078;21.014;2024-03-17T09:02:03;165204.41;;;5.55;100.00
45255;BME280;30989;52.078;21.014;2024-03-17T09:04:29;165205.75;;;5.55;100.00
45255;BME280;30989;52.078;21.014;2024-03-17T09:06:54;165228.44;;;5.64;100.00
45255;BME280;30989;52.078;21.014;2024-03-17T09:09:22;165260.50;;;5.76;100.00
45255;BME280;30989;52.078;21.014;2024-03-17T09:11:47;165273.84;;;5.81;99.51
45255;BME280;30989;52.078;21.014;2024-03-17T09:14:13;165284.53;;;5.85;100.00
45255;BME280;30989;52.078;21.014;2024-03-17T09:16:38;165251.16;;;5.72;99.77
45255;BME280;30989;52.078;21.014;2024-03-17T09:19:03;165229.78;;;5.64;100.00
45255;BME280;30989;52.078;21.014;2024-03-17T09:21:29;165195.06;;;5.51;100.00
45255;BME280;30989;52.078;21.014;2024-03-17T09:23:54;165177.72;;;5.44;100.00
45255;BME280;30989;52.078;21.014;2024-03-17T09:26:20;165172.38;;;5.42;100.00
45255;BME280;30989;52.078;21.014;2024-03-17T09:28:45;165147.03;;;5.33;100.00
45255;BME280;30989;52.078;21.014;2024-03-17T09:31:11;165124.34;;;5.24;100.00
45255;BME280;30989;52.078;21.014;2024-03-17T09:33:37;165140.34;;;5.30;100.00
45255;BME280;30989;52.078;21.014;2024-03-17T09:36:07;165135.00;;;5.28;100.00
45255;BME280;30989;52.078;21.014;2024-03-17T09:38:36;165137.69;;;5.29;100.00
45255;BME280;30989;52.078;21.014;2024-03-17T09:41:02;165113.66;;;5.20;100.00
45255;BME280;30989;52.078;21.014;2024-03-17T09:43:29;165038.88;;;4.92;100.00
45255;BME280;30989;52.078;21.014;2024-03-17T09:45:57;164972.16;;;4.66;100.00
45255;BME280;30989;52.078;21.014;2024-03-17T09:48:24;164909.47;;;4.42;100.00
45255;BME280;30989;52.078;21.014;2024-03-17T09:50:52;164857.44;;;4.22;100.00
45255;BME280;30989;52.078;21.014;2024-03-17T09:53:26;164841.44;;;4.16;100.00
45255;BME280;30989;52.078;21.014;2024-03-17T09:56:12;164838.78;;;4.15;100.00
45255;BME280;30989;52.078;21.014;2024-03-17T09:58:44;164838.78;;;4.15;100.00
45255;BME280;30989;52.078;21.014;2024-03-17T10:01:11;164832.13;;;4.13;100.00
45255;BME280;30989;52.078;21.014;2024-03-17T10:06:12;164808.13;;;4.04;100.00
45255;BME280;30989;52.078;21.014;2024-03-17T10:08:49;164806.78;;;4.03;100.00
45255;BME280;30989;52.078;21.014;2024-03-17T10:11:20;164804.13;;;4.02;100.00
45255;BME280;30989;52.078;21.014;2024-03-17T10:14:00;164820.13;;;4.08;100.00
45255;BME280;30989;52.078;21.014;2024-03-17T10:16:27;164817.44;;;4.07;100.00
45255;BME280;30989;52.078;21.014;2024-03-17T10:19:16;164882.78;;;4.32;100.00
45255;BME280;30989;52.078;21.014;2024-03-17T10:21:46;164932.16;;;4.51;100.00
45255;BME280;30989;52.078;21.014;2024-03-17T10:24:23;164961.50;;;4.62;100.00
45255;BME280;30989;52.078;21.014;2024-03-17T10:26:51;164988.19;;;4.72;100.00
45255;BME280;30989;52.078;21.014;2024-03-17T10:29:26;164996.19;;;4.75;100.00
45255;BME280;30989;52.078;21.014;2024-03-17T10:32:01;164978.84;;;4.69;100.00
45255;BME280;30989;52.078;21.014;2024-03-17T10:34:28;165000.19;;;4.77;100.00
45255;BME280;30989;52.078;21.014;2024-03-17T10:39:33;165045.56;;;4.94;100.00
45255;BME280;30989;52.078;21.014;2024-03-17T10:42:01;165110.94;;;5.19;100.00
45255;BME280;30989;52.078;21.014;2024-03-17T10:44:27;165144.34;;;5.32;100.00
45255;BME280;30989;52.078;21.014;2024-03-17T10:46:55;165180.41;;;5.45;100.00
45255;BME280;30989;52.078;21.014;2024-03-17T10:49:34;165213.75;;;5.58;100.00
45255;BME280;30989;52.078;21.014;2024-03-17T10:52:01;165199.09;;;5.53;100.00
45255;BME280;30989;52.078;21.014;2024-03-17T10:54:28;165176.38;;;5.44;100.00
45255;BME280;30989;52.078;21.014;2024-03-17T10:57:07;165149.69;;;5.34;100.00
45255;BME280;30989;52.078;21.014;2024-03-17T10:59:41;165151.03;;;5.34;100.00
45255;BME280;30989;52.078;21.014;2024-03-17T11:02:28;165143.03;;;5.31;100.00
45255;BME280;30989;52.078;21.014;2024-03-17T11:04:59;165136.34;;;5.29;100.00
45255;BME280;30989;52.078;21.014;2024-03-17T11:07:26;165119.00;;;5.22;100.00
45255;BME280;30989;52.078;21.014;2024-03-17T11:09:55;165121.66;;;5.23;100.00
45255;BME280;30989;52.078;21.014;2024-03-17T11:12:46;165124.34;;;5.24;100.00
45255;BME280;30989;52.078;21.014;2024-03-17T11:20:39;165119.00;;;5.22;100.00
45255;BME280;30989;52.078;21.014;2024-03-17T11:23:05;165135.00;;;5.28;100.00
45255;BME280;30989;52.078;21.014;2024-03-17T11:27:59;165187.06;;;5.48;100.00
45255;BME280;30989;52.078;21.014;2024-03-17T11:38:53;165236.47;;;5.67;100.00
45255;BME280;30989;52.078;21.014;2024-03-17T11:47:03;165205.75;;;5.55;95.99
45255;BME280;30989;52.078;21.014;2024-03-17T11:49:41;165185.72;;;5.47;98.58
45255;BME280;30989;52.078;21.014;2024-03-17T11:52:10;165167.03;;;5.40;99.25
45255;BME280;30989;52.078;21.014;2024-03-17T11:54:43;165147.03;;;5.33;98.58
45255;BME280;30989;52.078;21.014;2024-03-17T11:57:10;165125.66;;;5.25;99.03
45255;BME280;30989;52.078;21.014;2024-03-17T11:59:37;165106.94;;;5.17;99.39
45255;BME280;30989;52.078;21.014;2024-03-17T12:02:10;165086.91;;;5.10;98.48
45255;BME280;30989;52.078;21.014;2024-03-17T12:04:39;165065.56;;;5.02;99.49
45255;BME280;30989;52.078;21.014;2024-03-17T12:07:12;165064.22;;;5.01;100.00
45255;BME280;30989;52.078;21.014;2024-03-17T12:09:39;165044.22;;;4.94;100.00
45255;BME280;30989;52.078;21.014;2024-03-17T12:12:09;165041.53;;;4.93;100.00
45255;BME280;30989;52.078;21.014;2024-03-17T12:14:38;165028.22;;;4.88;100.00
45255;BME280;30989;52.078;21.014;2024-03-17T12:17:09;165018.88;;;4.84;100.00
45255;BME280;30989;52.078;21.014;2024-03-17T12:19:35;164989.50;;;4.73;100.00
45255;BME280;30989;52.078;21.014;2024-03-17T12:22:02;164962.84;;;4.63;100.00
45255;BME280;30989;52.078;21.014;2024-03-17T12:24:35;164942.81;;;4.55;100.00
45255;BME280;30989;52.078;21.014;2024-03-17T12:27:04;164909.47;;;4.42;100.00
45255;BME280;30989;52.078;21.014;2024-03-17T12:29:37;164889.47;;;4.35;100.00
45255;BME280;30989;52.078;21.014;2024-03-17T12:32:25;164869.47;;;4.27;100.00
45255;BME280;30989;52.078;21.014;2024-03-17T12:35:00;164852.13;;;4.20;100.00
45255;BME280;30989;52.078;21.014;2024-03-17T12:37:30;164849.44;;;4.19;100.00
45255;BME280;30989;52.078;21.014;2024-03-17T12:39:59;164857.44;;;4.22;100.00
45255;BME280;30989;52.078;21.014;2024-03-17T12:42:26;164864.13;;;4.25;100.00
45255;BME280;30989;52.078;21.014;2024-03-17T12:44:59;164885.47;;;4.33;100.00
45255;BME280;30989;52.078;21.014;2024-03-17T12:47:26;164918.81;;;4.46;100.00
45255;BME280;30989;52.078;21.014;2024-03-17T12:50:11;164944.16;;;4.56;100.00
45255;BME280;30989;52.078;21.014;2024-03-17T12:52:40;164962.84;;;4.63;100.00
45255;BME280;30989;52.078;21.014;2024-03-17T12:55:18;164977.50;;;4.68;100.00
45255;BME280;30989;52.078;21.014;2024-03-17T13:03:33;164973.50;;;4.67;100.00
45255;BME280;30989;52.078;21.014;2024-03-17T13:06:10;164964.16;;;4.63;100.00
45255;BME280;30989;52.078;21.014;2024-03-17T13:08:55;164954.81;;;4.60;100.00
45255;BME280;30989;52.078;21.014;2024-03-17T13:11:26;164945.50;;;4.56;100.00
45255;BME280;30989;52.078;21.014;2024-03-17T13:14:02;164926.81;;;4.49;100.00
45255;BME280;30989;52.078;21.014;2024-03-17T13:16:32;164948.16;;;4.57;100.00
45255;BME280;30989;52.078;21.014;2024-03-17T13:19:01;164938.81;;;4.53;100.00
45255;BME280;30989;52.078;21.014;2024-03-17T13:21:39;164949.50;;;4.58;100.00